Time;durP1;ratioP1;P1;durP2;ratioP2;P2;SDS_P1;SDS_P2;PMS_P1;PMS_P2;Temp;Humidity;BMP_temperature;BMP_pressure;BME280_temperature;BME280_humidity;BME280_pressure;Samples;Min_cycle;Max_cycle;Signal;HPM_P1;HPM_P2
2024/02/02 00:02:12;;;;;;;7.13;5.93;;;14.20;55.30;;;;;;5002709;28;21177;-61
2024/02/02 00:04:38;;;;;;;7.13;6.43;;;14.20;55.30;;;;;;5002474;28;20186;-62
2024/02/02 00:07:04;;;;;;;7.47;6.60;;;14.20;55.30;;;;;;5005908;28;20212;-62
2024/02/02 00:09:29;;;;;;;7.50;6.80;;;14.10;55.60;;;;;;5005483;28;20449;-64
2024/02/02 00:11:55;;;;;;;7.87;6.87;;;14.00;55.90;;;;;;5003720;28;20704;-63
2024/02/02 00:14:21;;;;;;;8.00;7.20;;;14.00;56.20;;;;;;5004324;28;20283;-63
2024/02/02 00:16:46;;;;;;;10.30;7.00;;;14.00;56.20;;;;;;5009000;28;20208;-62
2024/02/02 00:19:12;;;;;;;9.10;7.10;;;14.10;56.30;;;;;;5006481;28;20186;-62
2024/02/02 00:21:38;;;;;;;8.40;7.50;;;14.20;56.20;;;;;;5002014;28;20190;-61
2024/02/02 00:24:03;;;;;;;9.50;7.53;;;14.20;55.50;;;;;;5003765;28;20755;-62
2024/02/02 00:26:29;;;;;;;8.43;7.63;;;14.10;55.30;;;;;;5003215;28;20222;-63
2024/02/02 00:28:54;;;;;;;10.67;7.97;;;14.00;55.60;;;;;;5006573;28;20216;-64
2024/02/02 00:31:21;;;;;;;9.50;7.43;;;13.90;55.70;;;;;;5006271;28;20874;-62
2024/02/02 00:33:48;;;;;;;14.00;7.63;;;13.80;55.90;;;;;;5008182;28;20280;-63
2024/02/02 00:36:14;;;;;;;9.33;7.40;;;13.80;56.00;;;;;;5007961;28;20476;-63
2024/02/02 00:38:40;;;;;;;7.97;6.13;;;13.60;55.80;;;;;;5004379;28;20762;-63
2024/02/02 00:41:05;;;;;;;10.27;8.00;;;13.60;55.70;;;;;;5003686;28;20457;-63
2024/02/02 00:43:31;;;;;;;10.63;7.50;;;13.50;55.90;;;;;;5002959;28;20244;-62
2024/02/02 00:45:57;;;;;;;7.20;6.50;;;13.40;56.00;;;;;;5003077;28;20205;-62
2024/02/02 00:48:22;;;;;;;11.00;7.80;;;13.40;56.10;;;;;;5000845;28;20598;-62
2024/02/02 00:50:48;;;;;;;9.20;8.00;;;13.40;56.20;;;;;;5003022;28;20186;-62
2024/02/02 00:53:13;;;;;;;9.93;7.57;;;13.50;56.30;;;;;;5002583;28;20248;-63
2024/02/02 00:55:39;;;;;;;9.80;7.60;;;13.60;56.00;;;;;;5005558;28;20233;-63
2024/02/02 00:58:05;;;;;;;10.03;8.20;;;13.60;55.40;;;;;;5002493;28;20185;-62
2024/02/02 01:00:30;;;;;;;9.63;8.30;;;13.50;55.20;;;;;;5003327;28;20218;-62
2024/02/02 01:02:56;;;;;;;9.57;8.30;;;13.40;55.30;;;;;;5002654;28;20201;-63
2024/02/02 01:05:22;;;;;;;10.43;7.80;;;13.30;55.40;;;;;;5003591;28;20632;-61
2024/02/02 01:07:48;;;;;;;9.10;7.73;;;13.20;56.30;;;;;;5003210;28;20221;-61
2024/02/02 01:10:16;;;;;;;8.83;7.27;;;13.30;55.90;;;;;;5007768;28;20471;-63
2024/02/02 01:12:46;;;;;;;11.00;7.60;;;13.40;55.90;;;;;;5005644;28;20225;-63
2024/02/02 01:15:12;;;;;;;8.37;7.47;;;13.50;56.10;;;;;;5008428;28;20440;-63
2024/02/02 01:17:38;;;;;;;12.37;7.77;;;13.50;56.10;;;;;;5006636;28;20468;-61
2024/02/02 01:20:06;;;;;;;8.13;6.90;;;13.60;55.60;;;;;;5009476;28;20483;-62
2024/02/02 01:22:32;;;;;;;8.07;7.20;;;13.60;54.90;;;;;;5008246;28;20190;-62
2024/02/02 01:24:58;;;;;;;9.90;7.30;;;13.60;54.50;;;;;;5007415;28;20516;-62
2024/02/02 01:27:23;;;;;;;10.90;6.13;;;13.50;54.70;;;;;;5006808;28;20227;-62
2024/02/02 01:29:49;;;;;;;9.93;7.30;;;13.50;55.50;;;;;;5008034;28;20575;-63
2024/02/02 01:32:14;;;;;;;8.53;7.07;;;13.50;55.40;;;;;;5007895;28;20182;-62
2024/02/02 01:34:40;;;;;;;8.10;7.30;;;13.50;55.00;;;;;;5009873;28;20177;-62
2024/02/02 01:37:06;;;;;;;8.70;7.10;;;13.50;54.90;;;;;;5011358;28;20213;-63
2024/02/02 01:39:32;;;;;;;11.70;6.80;;;13.40;55.20;;;;;;5012648;28;20429;-63
2024/02/02 01:41:59;;;;;;;8.17;7.30;;;13.40;56.00;;;;;;5011540;28;20189;-62
2024/02/02 01:44:25;;;;;;;8.33;7.43;;;13.30;56.40;;;;;;5012824;28;20280;-63
2024/02/02 01:46:50;;;;;;;8.97;7.00;;;13.40;55.70;;;;;;5012143;28;20539;-62
2024/02/02 01:49:16;;;;;;;9.07;6.93;;;13.30;55.60;;;;;;5012942;28;20264;-62
2024/02/02 01:51:41;;;;;;;7.93;7.07;;;13.20;55.20;;;;;;5010597;28;20190;-63
2024/02/02 01:54:08;;;;;;;9.30;8.40;;;13.20;55.70;;;;;;5011304;28;20213;-64
2024/02/02 01:56:34;;;;;;;8.40;7.20;;;13.30;56.00;;;;;;5007734;28;20218;-61
2024/02/02 01:59:04;;;;;;;9.17;7.70;;;13.30;54.80;;;;;;5008018;28;20443;-64
2024/02/02 02:01:31;;;;;;;7.90;7.10;;;13.20;54.90;;;;;;5006382;28;21787;-63
2024/02/02 02:03:57;;;;;;;9.63;6.80;;;13.20;54.90;;;;;;5007511;28;20448;-63
2024/02/02 02:06:23;;;;;;;9.10;8.00;;;13.30;55.20;;;;;;5010136;28;20483;-63
2024/02/02 02:08:49;;;;;;;9.97;7.57;;;13.50;55.30;;;;;;5006170;28;20182;-64
2024/02/02 02:11:15;;;;;;;9.13;8.10;;;13.40;54.80;;;;;;5005206;28;20204;-63
2024/02/02 02:13:41;;;;;;;8.60;7.63;;;13.50;54.60;;;;;;5005466;28;20512;-63
2024/02/02 02:16:08;;;;;;;8.70;6.03;;;13.40;54.50;;;;;;5005162;28;20222;-62
2024/02/02 02:18:34;;;;;;;10.70;7.87;;;13.40;55.00;;;;;;5012276;28;20546;-62
2024/02/02 02:21:20;;;;;;;10.50;7.13;;;13.40;55.70;;;;;;5012506;28;20810;-62
2024/02/02 02:23:46;;;;;;;9.93;8.37;;;13.50;55.10;;;;;;5007192;28;20514;-61
2024/02/02 02:26:11;;;;;;;9.40;7.30;;;13.60;55.10;;;;;;5004376;28;20967;-61
2024/02/02 02:28:37;;;;;;;8.67;7.60;;;13.70;55.10;;;;;;5003951;28;20193;-62
2024/02/02 02:31:04;;;;;;;7.97;6.93;;;13.80;54.10;;;;;;5005996;28;20244;-62
2024/02/02 02:33:29;;;;;;;10.17;7.20;;;13.70;54.20;;;;;;5006985;28;20224;-61
2024/02/02 02:35:55;;;;;;;8.90;6.77;;;13.70;53.60;;;;;;5009527;28;20453;-61
2024/02/02 02:38:20;;;;;;;10.40;7.57;;;13.60;53.40;;;;;;5011214;28;20189;-62
2024/02/02 02:40:46;;;;;;;8.63;7.10;;;13.40;53.40;;;;;;5005511;28;20187;-61
2024/02/02 02:43:11;;;;;;;10.20;7.63;;;13.30;53.70;;;;;;5004335;28;20210;-62
2024/02/02 02:45:37;;;;;;;8.87;7.83;;;13.20;54.00;;;;;;5005025;28;20654;-62
2024/02/02 02:48:03;;;;;;;8.60;7.70;;;13.00;54.30;;;;;;5004559;28;20197;-62
2024/02/02 02:50:29;;;;;;;11.00;8.37;;;12.90;54.80;;;;;;5004951;28;20437;-62
2024/02/02 02:52:54;;;;;;;7.33;6.60;;;12.80;55.00;;;;;;5004376;28;20272;-62
2024/02/02 02:55:20;;;;;;;8.23;7.33;;;12.70;55.20;;;;;;5006577;28;20217;-62
2024/02/02 02:57:46;;;;;;;8.70;6.40;;;12.70;55.60;;;;;;5004633;28;20256;-62
2024/02/02 03:00:13;;;;;;;8.87;5.87;;;12.70;55.70;;;;;;5006278;28;20217;-63
2024/02/02 03:02:39;;;;;;;6.53;5.23;;;12.70;55.90;;;;;;5005450;28;20231;-62
2024/02/02 03:05:05;;;;;;;11.23;6.47;;;12.80;56.50;;;;;;5004384;28;21023;-62
2024/02/02 03:07:31;;;;;;;8.20;6.23;;;12.90;55.30;;;;;;5006105;28;20293;-63
2024/02/02 03:09:57;;;;;;;12.00;7.30;;;12.90;55.10;;;;;;5005686;28;20515;-62
2024/02/02 03:12:22;;;;;;;7.17;6.20;;;12.80;55.00;;;;;;5009225;28;20293;-62
2024/02/02 03:14:48;;;;;;;7.10;6.00;;;12.80;55.10;;;;;;5010671;28;20182;-63
2024/02/02 03:17:13;;;;;;;7.40;6.70;;;12.80;55.30;;;;;;5008698;28;20217;-63
2024/02/02 03:19:39;;;;;;;7.27;6.53;;;12.80;55.50;;;;;;5010085;28;20197;-62
2024/02/02 03:22:05;;;;;;;8.63;7.00;;;12.80;55.60;;;;;;5009548;28;20178;-62
2024/02/02 03:24:30;;;;;;;8.40;6.77;;;12.80;55.60;;;;;;5010580;28;20182;-61
2024/02/02 03:26:56;;;;;;;8.07;7.27;;;12.80;56.10;;;;;;5010245;28;20212;-62
2024/02/02 03:29:22;;;;;;;10.67;8.13;;;12.70;55.60;;;;;;5010481;28;20661;-63
2024/02/02 03:31:48;;;;;;;9.90;7.63;;;12.60;55.70;;;;;;5010185;28;20425;-63
2024/02/02 03:34:13;;;;;;;9.57;7.97;;;12.50;56.00;;;;;;5009623;28;20225;-62
2024/02/02 03:36:39;;;;;;;9.93;7.83;;;12.30;56.20;;;;;;5009993;28;20711;-61
2024/02/02 03:39:04;;;;;;;8.20;6.93;;;12.30;56.60;;;;;;5010293;28;20192;-61
2024/02/02 03:41:30;;;;;;;11.23;7.83;;;12.40;56.60;;;;;;5010216;28;21079;-63
2024/02/02 03:43:56;;;;;;;8.63;6.90;;;12.40;56.50;;;;;;5009896;28;20256;-63
2024/02/02 03:46:22;;;;;;;10.97;7.10;;;12.40;56.30;;;;;;5009551;28;20217;-61
2024/02/02 03:48:48;;;;;;;8.87;8.00;;;12.50;56.50;;;;;;5011101;28;20429;-63
2024/02/02 03:51:14;;;;;;;10.53;6.40;;;12.50;56.40;;;;;;5009700;28;20605;-63
2024/02/02 03:53:39;;;;;;;7.13;6.43;;;12.60;56.70;;;;;;5010634;28;20556;-63
2024/02/02 03:56:05;;;;;;;8.13;7.33;;;12.70;56.70;;;;;;5006505;28;20223;-61
2024/02/02 03:58:31;;;;;;;10.67;7.80;;;12.80;56.30;;;;;;5001564;28;20189;-61
2024/02/02 04:00:56;;;;;;;8.13;6.60;;;12.80;56.00;;;;;;5004437;28;20190;-63
2024/02/02 04:03:22;;;;;;;8.33;6.50;;;12.90;56.00;;;;;;5002870;28;20275;-62
2024/02/02 04:05:47;;;;;;;8.03;6.40;;;13.10;56.10;;;;;;5004375;28;20202;-63
2024/02/02 04:08:13;;;;;;;9.03;6.63;;;13.20;56.30;;;;;;5006436;28;20186;-63
2024/02/02 04:10:39;;;;;;;6.97;5.80;;;13.30;56.10;;;;;;5003337;28;20281;-60
2024/02/02 04:13:04;;;;;;;7.20;6.10;;;13.30;55.40;;;;;;5003464;28;20232;-62
2024/02/02 04:15:30;;;;;;;8.73;6.63;;;13.20;54.90;;;;;;5006240;28;20595;-62
2024/02/02 04:17:56;;;;;;;8.93;6.70;;;13.10;55.60;;;;;;5000955;28;20190;-63
2024/02/02 04:20:22;;;;;;;8.40;7.43;;;12.90;55.20;;;;;;5003955;28;20782;-60
2024/02/02 04:22:47;;;;;;;8.27;6.40;;;12.70;55.40;;;;;;5007311;28;20211;-62
2024/02/02 04:25:13;;;;;;;7.33;6.27;;;12.60;55.80;;;;;;5003250;28;20194;-61
2024/02/02 04:27:39;;;;;;;12.53;8.77;;;12.40;56.10;;;;;;5002955;28;20210;-63
2024/02/02 04:30:05;;;;;;;12.50;7.73;;;12.20;56.40;;;;;;5002823;28;20196;-61
2024/02/02 04:32:32;;;;;;;10.00;8.10;;;12.10;56.70;;;;;;5006569;28;20190;-61
2024/02/02 04:34:59;;;;;;;13.90;7.57;;;12.00;57.10;;;;;;5002660;28;20465;-62
2024/02/02 04:37:25;;;;;;;9.07;7.50;;;11.90;57.30;;;;;;5005413;28;20522;-62
2024/02/02 04:39:50;;;;;;;15.53;7.73;;;11.80;57.60;;;;;;5003699;28;20226;-63
2024/02/02 04:42:16;;;;;;;8.97;6.87;;;11.70;57.90;;;;;;5001674;28;20452;-61
2024/02/02 04:44:41;;;;;;;7.57;6.63;;;11.70;58.20;;;;;;5003330;28;20285;-61
2024/02/02 04:47:07;;;;;;;6.17;5.57;;;11.60;58.30;;;;;;5003489;28;20221;-63
2024/02/02 04:49:32;;;;;;;10.07;6.10;;;11.60;58.50;;;;;;5006325;28;20749;-61
2024/02/02 04:51:58;;;;;;;9.80;6.80;;;11.60;58.70;;;;;;5001730;28;20189;-62
2024/02/02 04:54:24;;;;;;;6.77;5.50;;;11.60;59.20;;;;;;5004283;28;20719;-62
2024/02/02 04:56:49;;;;;;;7.53;5.77;;;11.50;58.90;;;;;;5001992;28;20237;-62
2024/02/02 04:59:15;;;;;;;6.10;5.50;;;11.50;58.90;;;;;;5005171;28;20259;-62
2024/02/02 05:01:40;;;;;;;7.30;6.13;;;11.50;58.90;;;;;;5003887;28;20185;-62
2024/02/02 05:04:06;;;;;;;7.60;5.40;;;11.50;59.00;;;;;;5006544;28;20596;-62
2024/02/02 05:06:32;;;;;;;7.67;6.40;;;11.40;59.80;;;;;;5006868;28;20490;-61
2024/02/02 05:08:58;;;;;;;9.80;5.27;;;11.30;59.40;;;;;;5002439;28;20273;-62
2024/02/02 05:11:23;;;;;;;10.60;6.57;;;11.30;59.40;;;;;;5004391;28;20269;-61
2024/02/02 05:13:49;;;;;;;5.37;4.80;;;11.40;59.40;;;;;;5008368;28;20571;-60
2024/02/02 05:16:14;;;;;;;13.13;5.77;;;11.30;59.30;;;;;;5007326;28;20208;-60
2024/02/02 05:18:40;;;;;;;5.97;5.37;;;11.30;59.50;;;;;;5009310;28;20189;-61
2024/02/02 05:21:05;;;;;;;7.77;4.97;;;11.30;59.60;;;;;;5006713;28;20182;-61
2024/02/02 05:23:31;;;;;;;8.80;5.50;;;11.30;59.80;;;;;;5007614;28;20190;-61
2024/02/02 05:25:57;;;;;;;11.87;5.47;;;11.30;59.80;;;;;;5008726;28;20739;-61
2024/02/02 05:28:22;;;;;;;7.57;4.83;;;11.20;59.90;;;;;;5007534;28;20190;-61
2024/02/02 05:30:48;;;;;;;12.30;6.43;;;11.20;60.10;;;;;;5009389;28;20213;-62
2024/02/02 05:33:14;;;;;;;7.07;6.00;;;11.20;60.20;;;;;;5007334;28;20264;-61
2024/02/02 05:35:39;;;;;;;11.10;6.63;;;11.30;60.20;;;;;;5008170;28;20206;-60
2024/02/02 05:38:05;;;;;;;11.20;5.97;;;11.30;60.00;;;;;;5006958;28;20194;-61
2024/02/02 05:40:30;;;;;;;7.83;5.20;;;11.40;60.00;;;;;;5009229;28;20174;-60
2024/02/02 05:42:56;;;;;;;7.23;5.23;;;11.40;59.90;;;;;;5008051;28;20202;-62
2024/02/02 05:45:22;;;;;;;6.80;5.90;;;11.40;59.80;;;;;;5008863;28;20264;-61
2024/02/02 05:47:47;;;;;;;6.33;5.73;;;11.40;60.00;;;;;;5006522;28;20214;-61
2024/02/02 05:50:13;;;;;;;8.77;7.97;;;11.30;60.20;;;;;;5002004;28;20232;-61
2024/02/02 05:52:38;;;;;;;8.70;7.83;;;11.30;60.20;;;;;;5001152;28;20232;-61
2024/02/02 05:55:04;;;;;;;7.60;6.90;;;11.30;60.40;;;;;;5002653;28;20704;-61
2024/02/02 05:57:30;;;;;;;10.00;6.60;;;11.30;60.40;;;;;;5001414;28;20296;-62
2024/02/02 05:59:55;;;;;;;8.47;7.07;;;11.30;60.50;;;;;;5007343;28;20193;-61
2024/02/02 06:02:21;;;;;;;8.10;7.30;;;11.40;60.70;;;;;;5002197;28;20613;-61
2024/02/02 06:04:48;;;;;;;11.63;7.87;;;11.40;60.50;;;;;;5002388;28;20239;-62
2024/02/02 06:07:15;;;;;;;11.83;8.73;;;11.40;60.50;;;;;;5002113;28;20591;-62
2024/02/02 06:09:40;;;;;;;9.57;7.10;;;11.30;60.60;;;;;;5002969;28;20433;-60
2024/02/02 06:12:06;;;;;;;9.30;8.23;;;11.30;60.90;;;;;;5001775;28;20455;-63
2024/02/02 06:14:32;;;;;;;9.77;8.00;;;11.40;61.70;;;;;;5003963;28;20224;-61
2024/02/02 06:16:57;;;;;;;11.37;7.80;;;11.60;62.80;;;;;;5003544;28;20681;-61
2024/02/02 06:19:23;;;;;;;9.73;7.80;;;11.80;62.50;;;;;;5005552;28;20193;-62
2024/02/02 06:21:48;;;;;;;8.20;7.30;;;11.90;61.60;;;;;;5004990;28;20672;-61
2024/02/02 06:24:14;;;;;;;10.43;8.27;;;12.10;61.50;;;;;;5004649;28;20189;-63
2024/02/02 06:26:40;;;;;;;12.20;7.80;;;12.20;60.70;;;;;;5005834;28;20198;-63
2024/02/02 06:29:05;;;;;;;9.87;6.57;;;12.30;60.10;;;;;;5010014;28;20185;-61
2024/02/02 06:31:31;;;;;;;13.57;8.10;;;12.40;59.60;;;;;;5010693;28;20190;-61
2024/02/02 06:33:56;;;;;;;12.00;8.30;;;12.50;59.40;;;;;;5009445;28;20211;-62
2024/02/02 06:36:27;;;;;;;13.27;8.53;;;12.50;59.10;;;;;;5009473;28;20206;-63
2024/02/02 06:38:55;;;;;;;11.63;8.70;;;12.60;58.70;;;;;;5011903;28;20194;-62
2024/02/02 06:41:20;;;;;;;11.37;8.47;;;12.70;58.40;;;;;;5008771;28;21071;-62
2024/02/02 06:43:46;;;;;;;13.37;9.13;;;12.60;58.00;;;;;;5008255;28;20531;-62
2024/02/02 06:46:12;;;;;;;9.73;8.20;;;12.70;58.00;;;;;;5005725;28;20586;-61
2024/02/02 06:48:37;;;;;;;10.23;9.17;;;12.70;58.00;;;;;;5008079;28;20185;-62
2024/02/02 06:51:03;;;;;;;12.60;9.27;;;12.70;57.70;;;;;;5009798;28;20201;-59
2024/02/02 06:53:29;;;;;;;9.27;8.20;;;12.60;57.60;;;;;;5010799;28;20210;-62
2024/02/02 06:55:55;;;;;;;12.17;8.83;;;12.60;57.80;;;;;;5010826;28;20669;-61
2024/02/02 06:58:38;;;;;;;11.00;8.37;;;12.60;57.70;;;;;;5011477;28;20432;-62
2024/02/02 07:01:04;;;;;;;10.63;8.47;;;12.50;57.90;;;;;;5007983;28;20646;-62
2024/02/02 07:03:34;;;;;;;12.43;7.90;;;12.50;57.90;;;;;;5010980;28;20417;-61
2024/02/02 07:06:02;;;;;;;11.97;8.80;;;12.60;58.20;;;;;;5007231;28;20845;-63
2024/02/02 07:08:29;;;;;;;11.43;8.17;;;12.60;58.40;;;;;;5010532;28;20866;-62
2024/02/02 07:11:11;;;;;;;17.17;9.70;;;12.70;58.20;;;;;;5007459;28;20967;-61
2024/02/02 07:13:49;;;;;;;13.00;9.70;;;12.70;58.00;;;;;;5011382;28;20468;-62
2024/02/02 07:16:26;;;;;;;13.57;9.03;;;12.70;58.20;;;;;;5007782;28;20875;-62
2024/02/02 07:18:52;;;;;;;16.00;8.83;;;12.80;58.10;;;;;;5011842;28;20924;-61
2024/02/02 07:21:18;;;;;;;11.40;9.60;;;12.80;58.10;;;;;;5011139;28;20416;-61
2024/02/02 07:23:44;;;;;;;13.60;9.73;;;12.70;58.30;;;;;;5010073;28;20794;-62
2024/02/02 07:26:24;;;;;;;12.70;10.57;;;12.80;58.40;;;;;;5008996;28;20217;-61
2024/02/02 07:28:50;;;;;;;11.43;8.83;;;12.80;58.10;;;;;;5010579;28;20429;-60
2024/02/02 07:31:32;;;;;;;10.70;9.07;;;12.80;57.70;;;;;;5006008;28;20812;-61
2024/02/02 07:34:05;;;;;;;14.20;10.17;;;12.80;57.50;;;;;;5006729;28;20214;-61
2024/02/02 07:36:33;;;;;;;11.10;9.07;;;12.70;57.70;;;;;;5006990;28;20429;-61
2024/02/02 07:38:59;;;;;;;15.53;10.40;;;12.70;58.10;;;;;;5010017;28;20440;-61
2024/02/02 07:41:26;;;;;;;12.10;9.67;;;12.80;58.20;;;;;;5009240;28;20445;-61
2024/02/02 07:43:57;;;;;;;11.70;9.00;;;12.70;58.20;;;;;;5009748;28;20212;-61
2024/02/02 07:46:23;;;;;;;12.50;9.37;;;12.80;58.50;;;;;;5006720;28;20469;-60
2024/02/02 07:48:50;;;;;;;10.57;9.20;;;12.80;58.80;;;;;;5009659;28;20490;-62
2024/02/02 07:51:18;;;;;;;13.00;10.40;;;12.80;58.60;;;;;;5010402;28;20479;-62
2024/02/02 07:53:45;;;;;;;14.03;10.80;;;12.60;58.20;;;;;;5009820;28;20484;-62
2024/02/02 07:56:11;;;;;;;10.30;8.60;;;12.60;59.00;;;;;;5009057;28;20461;-60
2024/02/02 07:58:36;;;;;;;13.03;10.00;;;12.40;59.30;;;;;;5010412;28;20471;-63
2024/02/02 08:01:02;;;;;;;12.60;8.40;;;12.50;59.90;;;;;;5008751;28;20409;-62
2024/02/02 08:03:28;;;;;;;11.40;8.17;;;12.70;59.10;;;;;;5009090;28;20264;-62
2024/02/02 08:05:54;;;;;;;12.10;8.90;;;12.70;58.90;;;;;;5006051;28;20213;-63
2024/02/02 08:08:19;;;;;;;11.77;8.30;;;12.80;58.70;;;;;;5007036;28;20198;-63
2024/02/02 08:10:46;;;;;;;11.20;8.60;;;12.80;58.70;;;;;;5009936;28;20186;-61
2024/02/02 08:13:13;;;;;;;10.47;7.80;;;12.80;58.80;;;;;;5005198;28;20214;-63
2024/02/02 08:15:40;;;;;;;12.93;8.17;;;12.90;59.00;;;;;;5002423;28;21162;-60
2024/02/02 08:18:07;;;;;;;11.90;7.33;;;13.00;59.10;;;;;;5005580;28;20463;-62
2024/02/02 08:20:33;;;;;;;10.97;7.53;;;13.10;59.00;;;;;;5010312;28;20433;-62
2024/02/02 08:22:59;;;;;;;10.67;8.00;;;13.20;58.90;;;;;;5008949;28;20442;-61
2024/02/02 08:25:25;;;;;;;9.53;7.27;;;13.10;58.90;;;;;;5009159;28;20448;-60
2024/02/02 08:27:50;;;;;;;8.63;7.40;;;13.20;59.10;;;;;;5009476;28;20191;-62
2024/02/02 08:30:16;;;;;;;14.00;7.43;;;13.20;58.90;;;;;;5007671;28;20183;-62
2024/02/02 08:32:45;;;;;;;14.43;8.93;;;13.20;59.00;;;;;;5005795;28;20186;-62
2024/02/02 08:35:10;;;;;;;12.70;9.90;;;13.20;59.40;;;;;;5003478;28;20441;-61
2024/02/02 08:37:38;;;;;;;13.60;9.93;;;13.30;59.00;;;;;;5003193;28;21043;-61
2024/02/02 08:40:15;;;;;;;11.60;10.03;;;13.20;59.00;;;;;;5006173;28;20240;-60
2024/02/02 08:42:41;;;;;;;13.20;8.90;;;13.20;59.00;;;;;;5004928;28;20452;-61
2024/02/02 08:45:26;;;;;;;11.30;9.00;;;13.30;59.40;;;;;;5004911;28;20444;-61
2024/02/02 08:47:52;;;;;;;12.70;8.70;;;13.20;59.50;;;;;;5004110;28;20281;-60
2024/02/02 08:50:19;;;;;;;23.33;8.83;;;13.30;59.70;;;;;;5007390;28;20944;-62
2024/02/02 08:52:48;;;;;;;9.23;7.73;;;13.40;59.90;;;;;;5005223;28;20220;-62
2024/02/02 08:55:46;;;;;;;12.90;8.80;;;13.40;59.80;;;;;;5005744;28;20468;-60
2024/02/02 08:58:23;;;;;;;14.37;9.77;;;13.40;60.00;;;;;;5006793;28;20452;-62
2024/02/02 09:00:50;;;;;;;13.10;9.87;;;13.40;60.10;;;;;;5005800;28;20845;-61
2024/02/02 09:03:19;;;;;;;13.27;9.77;;;13.40;59.80;;;;;;5003462;28;20456;-62
2024/02/02 09:05:53;;;;;;;14.47;10.63;;;13.40;59.50;;;;;;5008791;28;20437;-62
2024/02/02 09:08:30;;;;;;;11.60;9.63;;;13.40;59.30;;;;;;5003786;28;20444;-61
2024/02/02 09:11:16;;;;;;;14.70;9.57;;;13.30;59.40;;;;;;5008873;28;20515;-60
2024/02/02 09:13:44;;;;;;;15.93;9.73;;;13.40;59.70;;;;;;5007031;28;20507;-62
2024/02/02 09:16:12;;;;;;;12.40;8.53;;;13.40;59.50;;;;;;5003372;28;21559;-60
2024/02/02 09:18:44;;;;;;;13.80;8.97;;;13.50;59.80;;;;;;5006594;28;20490;-61
2024/02/02 09:21:13;;;;;;;10.97;8.00;;;13.60;60.30;;;;;;5000399;28;20956;-61
2024/02/02 09:23:49;;;;;;;10.63;8.20;;;13.60;60.10;;;;;;5005198;28;20583;-60
2024/02/02 09:26:16;;;;;;;9.80;8.10;;;13.70;60.00;;;;;;5006582;28;20546;-62
2024/02/02 09:28:43;;;;;;;11.53;8.80;;;13.70;60.10;;;;;;5008561;28;20563;-61
2024/02/02 09:31:20;;;;;;;16.67;12.50;;;13.80;60.30;;;;;;5003929;28;20828;-62
2024/02/02 09:33:50;;;;;;;15.60;10.90;;;13.80;60.30;;;;;;5006893;28;20476;-61
2024/02/02 09:36:16;;;;;;;15.07;11.63;;;13.90;60.30;;;;;;5004697;28;20465;-62
2024/02/02 09:38:56;;;;;;;10.60;9.50;;;13.90;60.90;;;;;;5005639;28;20436;-61
2024/02/02 09:42:09;;;;;;;9.77;8.80;;;14.00;60.20;;;;;;5005156;28;20437;-62
2024/02/02 09:44:48;;;;;;;11.30;9.20;;;14.10;60.00;;;;;;4974448;28;20846;-62
2024/02/02 09:47:52;;;;;;;14.33;11.57;;;14.10;59.90;;;;;;5003862;28;20514;-62
2024/02/02 09:50:47;;;;;;;12.87;10.20;;;14.20;60.00;;;;;;5007257;28;20429;-61
2024/02/02 09:53:45;;;;;;;11.80;8.60;;;14.30;59.80;;;;;;5004394;28;20560;-63
2024/02/02 09:56:22;;;;;;;12.07;9.33;;;14.30;60.00;;;;;;5005580;28;20448;-61
2024/02/02 09:59:08;;;;;;;9.13;8.23;;;14.20;60.20;;;;;;5011115;28;20416;-62
2024/02/02 10:02:20;;;;;;;13.33;10.80;;;14.20;60.20;;;;;;5008220;28;20427;-62
2024/02/02 10:05:13;;;;;;;13.87;10.20;;;14.40;60.10;;;;;;5009665;28;20478;-61
2024/02/02 10:07:39;;;;;;;12.70;10.33;;;14.40;60.00;;;;;;5009205;28;20441;-62
2024/02/02 10:10:23;;;;;;;12.73;9.30;;;14.40;59.90;;;;;;5012287;28;20413;-62
2024/02/02 10:13:04;;;;;;;10.63;8.50;;;14.50;60.10;;;;;;5010576;28;20220;-61
2024/02/02 10:15:43;;;;;;;9.90;8.90;;;14.50;59.90;;;;;;5010597;28;20496;-62
2024/02/02 10:18:14;;;;;;;10.27;8.53;;;14.50;60.30;;;;;;5007585;28;20476;-62
2024/02/02 10:20:53;;;;;;;7.83;7.00;;;14.50;60.60;;;;;;5008747;28;20445;-61
2024/02/02 10:24:03;;;;;;;9.40;7.57;;;14.60;61.40;;;;;;5009662;28;20432;-63
2024/02/02 10:26:56;;;;;;;7.60;6.90;;;14.70;60.30;;;;;;4999595;28;20567;-63
2024/02/02 10:29:40;;;;;;;11.23;7.57;;;14.70;59.90;;;;;;5008674;28;20528;-63
2024/02/02 10:32:18;;;;;;;8.73;7.63;;;14.80;59.80;;;;;;5007851;28;20441;-62
2024/02/02 10:35:17;;;;;;;10.93;7.10;;;14.80;59.60;;;;;;5008688;28;20485;-61
2024/02/02 10:37:48;;;;;;;9.03;7.77;;;15.00;59.90;;;;;;5005494;28;20827;-61
2024/02/02 10:40:39;;;;;;;8.27;6.80;;;15.00;59.10;;;;;;5007375;28;20988;-62
2024/02/02 10:43:48;;;;;;;7.70;7.00;;;15.10;58.60;;;;;;5004796;28;20594;-62
2024/02/02 10:46:38;;;;;;;8.07;7.23;;;15.20;58.80;;;;;;5007456;28;20476;-62
2024/02/02 10:49:47;;;;;;;6.47;5.87;;;15.20;59.70;;;;;;5010011;28;20445;-62
2024/02/02 10:53:08;;;;;;;8.40;5.90;;;15.40;59.60;;;;;;5005113;28;20452;-61
2024/02/02 10:56:05;;;;;;;7.57;6.87;;;15.40;59.10;;;;;;4996913;28;20457;-62
2024/02/02 10:58:49;;;;;;;6.80;6.10;;;15.50;58.60;;;;;;5008853;28;20834;-61
2024/02/02 11:01:36;;;;;;;6.90;6.00;;;15.60;58.20;;;;;;5007126;28;20453;-62
2024/02/02 11:04:13;;;;;;;6.83;6.10;;;15.70;57.00;;;;;;5007342;28;20436;-62
2024/02/02 11:06:51;;;;;;;7.20;6.50;;;15.80;56.20;;;;;;5009233;28;21054;-61
2024/02/02 11:09:44;;;;;;;6.53;5.90;;;15.90;56.40;;;;;;5009165;28;20447;-61
2024/02/02 11:12:33;;;;;;;8.90;5.80;;;15.90;57.10;;;;;;5005158;28;20511;-63
2024/02/02 11:15:08;;;;;;;6.77;5.87;;;16.10;56.20;;;;;;5006854;28;20539;-62
2024/02/02 11:17:50;;;;;;;4.87;4.23;;;15.80;54.90;;;;;;5007846;28;20453;-63
2024/02/02 11:20:29;;;;;;;3.90;3.60;;;15.80;55.80;;;;;;5010044;28;20439;-61
2024/02/02 11:23:02;;;;;;;4.30;3.90;;;15.80;54.90;;;;;;5010084;28;20440;-61
2024/02/02 11:25:40;;;;;;;2.93;2.73;;;15.50;54.10;;;;;;5010618;28;20421;-61
2024/02/02 11:28:32;;;;;;;3.60;3.30;;;15.30;54.40;;;;;;5003275;28;20955;-62
2024/02/02 11:31:25;;;;;;;2.83;2.63;;;15.30;54.10;;;;;;5006648;28;21003;-62
2024/02/02 11:34:12;;;;;;;4.10;3.07;;;15.30;54.60;;;;;;5008578;28;20484;-62
2024/02/02 11:37:02;;;;;;;3.60;3.30;;;15.40;54.60;;;;;;5005722;28;20513;-61
2024/02/02 11:40:04;;;;;;;3.27;2.97;;;15.50;54.30;;;;;;5007859;28;20441;-61
2024/02/02 11:42:32;;;;;;;5.30;2.80;;;15.70;54.50;;;;;;5006372;28;20445;-60
2024/02/02 11:45:00;;;;;;;2.33;2.10;;;15.70;53.50;;;;;;5006984;28;20956;-61
2024/02/02 11:47:29;;;;;;;2.13;1.93;;;15.70;52.80;;;;;;5007632;28;20560;-62
2024/02/02 11:50:06;;;;;;;3.20;2.80;;;15.20;52.00;;;;;;5008898;28;20449;-62
2024/02/02 11:52:39;;;;;;;2.17;1.97;;;14.90;53.10;;;;;;5006626;28;20528;-61
2024/02/02 11:55:07;;;;;;;2.57;1.90;;;15.00;52.60;;;;;;5003363;28;20429;-60
2024/02/02 11:57:42;;;;;;;2.20;2.00;;;15.10;52.20;;;;;;5006480;28;20789;-61
2024/02/02 12:00:17;;;;;;;2.83;2.00;;;15.30;51.90;;;;;;5010260;28;20420;-60
2024/02/02 12:03:18;;;;;;;2.00;1.90;;;15.80;52.50;;;;;;5008882;28;20503;-62
2024/02/02 12:06:08;;;;;;;2.40;1.70;;;15.60;50.90;;;;;;4994033;28;20460;-60
2024/02/02 12:08:56;;;;;;;1.87;1.70;;;15.80;49.90;;;;;;5005549;28;20433;-62
2024/02/02 12:11:26;;;;;;;2.87;1.63;;;15.60;48.70;;;;;;5008071;28;20460;-61
2024/02/02 12:13:54;;;;;;;1.70;1.60;;;15.80;49.50;;;;;;5008579;28;20472;-61
2024/02/02 12:16:19;;;;;;;1.47;1.37;;;15.50;47.40;;;;;;5007008;28;20547;-62
2024/02/02 12:18:45;;;;;;;1.67;1.57;;;15.40;48.30;;;;;;5009827;28;20868;-62
2024/02/02 12:21:15;;;;;;;1.77;1.67;;;15.50;49.00;;;;;;5009700;28;20193;-62
2024/02/02 12:23:47;;;;;;;1.43;1.33;;;15.60;48.60;;;;;;5006856;28;20616;-62
2024/02/02 12:26:14;;;;;;;1.70;1.53;;;15.50;48.10;;;;;;5007547;28;20887;-61
2024/02/02 12:28:40;;;;;;;1.67;1.53;;;15.60;47.90;;;;;;5008032;28;20433;-61
2024/02/02 12:31:06;;;;;;;2.40;1.80;;;15.60;48.60;;;;;;5009141;28;20451;-60
2024/02/02 12:33:31;;;;;;;1.50;1.40;;;15.50;47.50;;;;;;5009042;28;20213;-61
2024/02/02 12:35:58;;;;;;;2.97;1.73;;;15.50;48.00;;;;;;5007074;28;20292;-63
2024/02/02 12:38:24;;;;;;;6.20;1.97;;;15.80;48.30;;;;;;5007490;28;20210;-61
2024/02/02 12:40:50;;;;;;;1.57;1.30;;;16.00;48.10;;;;;;5007798;28;20514;-62
2024/02/02 12:43:23;;;;;;;1.33;1.23;;;16.10;47.80;;;;;;5006455;28;20198;-60
2024/02/02 12:45:49;;;;;;;1.60;1.50;;;16.30;47.10;;;;;;5004783;28;21984;-61
2024/02/02 12:48:15;;;;;;;1.47;1.37;;;16.40;45.60;;;;;;5007125;28;20481;-61
2024/02/02 12:50:43;;;;;;;1.43;1.10;;;16.40;46.60;;;;;;5008946;28;20178;-60
2024/02/02 12:53:10;;;;;;;1.50;1.23;;;16.40;46.10;;;;;;5007250;28;20587;-61
2024/02/02 12:55:35;;;;;;;2.90;1.10;;;16.50;46.50;;;;;;5008513;28;20460;-61
2024/02/02 12:58:01;;;;;;;1.30;1.20;;;16.50;45.80;;;;;;5008541;28;20425;-62
2024/02/02 13:00:27;;;;;;;1.37;1.27;;;16.50;45.70;;;;;;5008501;28;20186;-63